Time;durP1;ratioP1;P1;durP2;ratioP2;P2;SDS_P1;SDS_P2;PMS_P1;PMS_P2;Temp;Humidity;BMP_temperature;BMP_pressure;BME280_temperature;BME280_humidity;BME280_pressure;Samples;Min_cycle;Max_cycle;Signal;HPM_P1;HPM_P2
2023/06/22 00:00:59;;;;;;;0.20;0.20;;;16.10;99.90;;;;;;5091035;28;20044;-77
2023/06/22 00:03:25;;;;;;;0.10;0.10;;;16.10;99.90;;;;;;5090906;28;20078;-79
2023/06/22 00:05:52;;;;;;;0.20;0.20;;;16.00;99.90;;;;;;5091396;28;20193;-79
2023/06/22 00:08:18;;;;;;;0.20;0.20;;;16.00;99.90;;;;;;5073908;28;20093;-78
2023/06/22 00:10:45;;;;;;;0.20;0.20;;;16.00;99.90;;;;;;5074615;28;20044;-76
2023/06/22 00:13:11;;;;;;;0.15;0.15;;;15.90;99.90;;;;;;5091151;28;20393;-77
2023/06/22 00:15:39;;;;;;;0.20;0.20;;;15.90;99.90;;;;;;5091055;28;20385;-78
2023/06/22 00:18:06;;;;;;;0.20;0.20;;;15.90;99.90;;;;;;5090849;28;20381;-78
2023/06/22 00:20:32;;;;;;;0.30;0.30;;;15.80;99.90;;;;;;5089333;28;20050;-75
2023/06/22 00:22:58;;;;;;;;;;;15.80;99.90;;;;;;5090716;28;20495;-75
2023/06/22 00:25:24;;;;;;;0.30;0.30;;;15.70;99.90;;;;;;5090618;28;20273;-75
2023/06/22 00:27:50;;;;;;;;;;;15.70;99.90;;;;;;5091090;28;20047;-75
2023/06/22 00:30:17;;;;;;;0.30;0.30;;;15.60;99.90;;;;;;5090338;28;19927;-75
2023/06/22 00:32:43;;;;;;;0.30;0.30;;;15.60;99.90;;;;;;5073218;28;20047;-76
2023/06/22 00:35:12;;;;;;;0.30;0.30;;;15.60;99.90;;;;;;5090187;28;20055;-76
2023/06/22 00:37:41;;;;;;;0.20;0.20;;;15.50;99.90;;;;;;5090107;28;20048;-76
2023/06/22 00:40:08;;;;;;;0.30;0.30;;;15.50;99.90;;;;;;5090441;28;20044;-75
2023/06/22 00:42:34;;;;;;;0.50;0.30;;;15.50;99.90;;;;;;5073392;28;20405;-77
2023/06/22 00:44:59;;;;;;;;;;;15.50;99.90;;;;;;5125044;27;20047;-78
2023/06/22 00:47:26;;;;;;;0.20;0.20;;;15.50;99.90;;;;;;5089928;28;19922;-77
2023/06/22 00:49:52;;;;;;;0.65;0.30;;;15.50;99.90;;;;;;5090528;28;20450;-77
2023/06/22 00:52:21;;;;;;;;;;;15.40;99.90;;;;;;5090377;28;20044;-77
2023/06/22 00:54:51;;;;;;;0.20;0.20;;;15.40;99.90;;;;;;5089992;28;19965;-78
2023/06/22 00:57:18;;;;;;;0.20;0.20;;;15.30;99.90;;;;;;5090015;28;20076;-77
2023/06/22 00:59:48;;;;;;;0.20;0.20;;;15.30;99.90;;;;;;5089975;28;20040;-76
2023/06/22 01:02:14;;;;;;;0.20;0.20;;;15.30;99.90;;;;;;5090088;28;20519;-76
2023/06/22 01:04:40;;;;;;;;;;;15.30;99.90;;;;;;5073209;28;20060;-77
2023/06/22 01:07:22;;;;;;;0.20;0.20;;;15.30;99.90;;;;;;5089956;28;19979;-76
2023/06/22 01:10:14;;;;;;;0.15;0.15;;;15.30;99.90;;;;;;5090132;28;20036;-76
2023/06/22 01:12:53;;;;;;;0.25;0.25;;;15.30;99.90;;;;;;5089606;28;20047;-75
2023/06/22 01:15:28;;;;;;;0.32;0.32;;;15.30;99.90;;;;;;5090271;28;20042;-78
2023/06/22 01:17:56;;;;;;;0.20;0.20;;;15.30;99.90;;;;;;5073277;28;20121;-77
2023/06/22 01:20:23;;;;;;;0.75;0.60;;;15.30;99.90;;;;;;5090103;28;20421;-77
2023/06/22 01:23:07;;;;;;;1.08;0.98;;;15.40;99.90;;;;;;5072649;28;20054;-76
2023/06/22 01:25:53;;;;;;;0.30;0.30;;;15.40;99.90;;;;;;5089480;28;20040;-77
2023/06/22 01:28:41;;;;;;;0.20;0.20;;;15.50;99.90;;;;;;5089526;28;20055;-78
2023/06/22 01:31:10;;;;;;;0.35;0.35;;;15.50;99.90;;;;;;5089385;28;20131;-77
2023/06/22 01:33:40;;;;;;;0.32;0.32;;;15.40;99.90;;;;;;5089392;28;20083;-76
2023/06/22 01:36:07;;;;;;;0.40;0.40;;;15.40;99.90;;;;;;5089845;28;20044;-76
2023/06/22 01:38:33;;;;;;;1.38;0.75;;;15.40;99.90;;;;;;5089264;28;20036;-77
2023/06/22 01:41:00;;;;;;;0.22;0.22;;;15.40;99.90;;;;;;5089574;28;20040;-77
2023/06/22 01:43:27;;;;;;;0.20;0.20;;;15.40;99.90;;;;;;5072538;28;20044;-76
2023/06/22 01:45:55;;;;;;;0.20;0.20;;;15.40;99.90;;;;;;5089592;28;20450;-77
2023/06/22 01:48:21;;;;;;;0.20;0.20;;;15.40;99.90;;;;;;5089360;28;20135;-75
2023/06/22 01:50:47;;;;;;;0.17;0.17;;;15.40;99.90;;;;;;5088770;28;20520;-78
2023/06/22 01:53:12;;;;;;;;;;;15.30;99.90;;;;;;5089896;28;20146;-79
2023/06/22 01:55:44;;;;;;;0.20;0.20;;;15.30;99.90;;;;;;5089642;28;19927;-76
2023/06/22 01:58:09;;;;;;;;;;;15.20;99.90;;;;;;5073207;28;20036;-75
2023/06/22 02:00:40;;;;;;;0.10;0.10;;;15.10;99.90;;;;;;5088977;28;19919;-75
2023/06/22 02:03:11;;;;;;;0.10;0.10;;;15.10;99.90;;;;;;5072273;28;20048;-77
2023/06/22 02:05:48;;;;;;;0.20;0.20;;;15.10;99.90;;;;;;5072079;28;20066;-76
2023/06/22 02:08:28;;;;;;;0.20;0.20;;;15.10;99.90;;;;;;5089747;28;20035;-77
2023/06/22 02:10:55;;;;;;;0.20;0.20;;;15.00;99.90;;;;;;5089342;28;20492;-76
2023/06/22 02:13:21;;;;;;;0.20;0.20;;;15.10;99.90;;;;;;5089416;28;20062;-79
2023/06/22 02:15:47;;;;;;;;;;;15.10;99.90;;;;;;5056497;28;20076;-79
2023/06/22 02:18:13;;;;;;;0.17;0.17;;;15.00;99.90;;;;;;5072514;28;19955;-78
2023/06/22 02:20:40;;;;;;;0.20;0.20;;;15.00;99.90;;;;;;5089303;28;20040;-77
2023/06/22 02:23:06;;;;;;;0.30;0.30;;;15.00;99.90;;;;;;5089459;28;20047;-80
2023/06/22 02:25:33;;;;;;;0.22;0.22;;;14.90;99.90;;;;;;5089323;28;20046;-78
2023/06/22 02:27:59;;;;;;;0.30;0.30;;;14.90;99.90;;;;;;5089301;28;20109;-79
2023/06/22 02:30:24;;;;;;;;;;;14.80;99.90;;;;;;5089748;28;20044;-77
2023/06/22 02:32:58;;;;;;;0.30;0.30;;;14.80;99.90;;;;;;5089054;28;19916;-76
2023/06/22 02:35:31;;;;;;;0.20;0.20;;;14.70;99.90;;;;;;5073757;28;20044;-77
2023/06/22 02:38:00;;;;;;;0.20;0.20;;;14.80;99.90;;;;;;5088878;28;20040;-77
2023/06/22 02:40:26;;;;;;;0.15;0.15;;;14.80;99.90;;;;;;5072400;28;20791;-77
2023/06/22 02:42:52;;;;;;;;;;;14.70;99.90;;;;;;5089745;28;20040;-78
2023/06/22 02:45:18;;;;;;;0.22;0.22;;;14.70;99.90;;;;;;5092435;28;20426;-78
2023/06/22 02:47:43;;;;;;;;;;;14.70;99.90;;;;;;5092903;28;20074;-78
2023/06/22 02:50:09;;;;;;;0.20;0.20;;;14.70;99.90;;;;;;5093157;28;19954;-77
2023/06/22 02:52:35;;;;;;;;;;;14.60;99.90;;;;;;5092989;28;20370;-78
2023/06/22 02:55:01;;;;;;;0.40;0.40;;;14.60;99.90;;;;;;5092303;28;19920;-77
2023/06/22 02:57:26;;;;;;;;;;;14.70;99.90;;;;;;5092541;28;20047;-76
2023/06/22 02:59:52;;;;;;;0.43;0.43;;;14.60;99.90;;;;;;5075231;28;19956;-76
2023/06/22 03:02:20;;;;;;;;;;;14.70;99.90;;;;;;5093109;28;20083;-76
2023/06/22 03:04:48;;;;;;;0.20;0.20;;;14.60;99.90;;;;;;5058312;28;19968;-77
2023/06/22 03:07:17;;;;;;;0.25;0.25;;;14.60;99.90;;;;;;5092031;28;20100;-77
2023/06/22 03:09:43;;;;;;;0.20;0.20;;;14.60;99.90;;;;;;5091324;28;20043;-76
2023/06/22 03:12:09;;;;;;;0.10;0.10;;;14.60;99.90;;;;;;5091419;28;20111;-78
2023/06/22 03:14:34;;;;;;;0.40;0.40;;;14.60;99.90;;;;;;5091789;28;20491;-75
2023/06/22 03:17:03;;;;;;;;;;;14.60;99.90;;;;;;5092872;28;20084;-77
2023/06/22 03:19:31;;;;;;;0.65;0.65;;;14.60;99.90;;;;;;5092593;28;19916;-77
2023/06/22 03:22:00;;;;;;;0.20;0.20;;;14.60;99.90;;;;;;5092038;28;20055;-76
2023/06/22 03:24:25;;;;;;;0.30;0.30;;;14.60;99.90;;;;;;5075676;28;20083;-78
2023/06/22 03:26:51;;;;;;;0.20;0.20;;;14.60;99.90;;;;;;5092040;28;20723;-78
2023/06/22 03:29:16;;;;;;;0.30;0.30;;;14.60;99.90;;;;;;5092625;28;20150;-78
2023/06/22 03:31:42;;;;;;;;;;;14.50;99.90;;;;;;5092861;28;20048;-77
2023/06/22 03:34:09;;;;;;;0.40;0.40;;;14.50;99.90;;;;;;5092497;28;20333;-74
2023/06/22 03:36:34;;;;;;;;;;;14.50;99.90;;;;;;5075477;28;20087;-76
2023/06/22 03:39:00;;;;;;;0.20;0.20;;;14.60;99.90;;;;;;5075402;28;19916;-77
2023/06/22 03:41:26;;;;;;;;;;;14.60;99.90;;;;;;5075397;28;20067;-77
2023/06/22 03:43:51;;;;;;;0.30;0.30;;;14.60;99.90;;;;;;5091410;28;19973;-75
2023/06/22 03:46:17;;;;;;;;;;;14.60;99.90;;;;;;5092193;28;20126;-76
2023/06/22 03:48:43;;;;;;;0.20;0.20;;;14.60;99.90;;;;;;5074174;28;19955;-77
2023/06/22 03:51:08;;;;;;;;;;;14.60;99.90;;;;;;5057421;28;20123;-76
2023/06/22 03:53:34;;;;;;;0.30;0.30;;;14.60;99.90;;;;;;5071156;28;19916;-75
2023/06/22 03:55:59;;;;;;;;;;;14.60;99.90;;;;;;5087504;28;20038;-76
2023/06/22 03:58:25;;;;;;;0.30;0.30;;;14.60;99.90;;;;;;5037990;28;19916;-76
2023/06/22 04:00:51;;;;;;;;;;;14.60;99.90;;;;;;5054227;28;20515;-78
2023/06/22 04:03:18;;;;;;;0.17;0.17;;;14.70;99.90;;;;;;5054413;28;19963;-76
2023/06/22 04:05:44;;;;;;;0.20;0.20;;;14.70;99.90;;;;;;5070757;28;20048;-76
2023/06/22 04:08:10;;;;;;;0.30;0.30;;;14.70;99.90;;;;;;5071219;28;20044;-75
2023/06/22 04:10:36;;;;;;;;;;;14.80;99.90;;;;;;5105049;28;20044;-77
2023/06/22 04:13:02;;;;;;;0.20;0.20;;;14.80;99.90;;;;;;5054387;28;19934;-76
2023/06/22 04:15:27;;;;;;;;;;;14.90;99.90;;;;;;5106403;28;20040;-75
2023/06/22 04:17:54;;;;;;;0.20;0.20;;;14.90;99.90;;;;;;5090923;28;20019;-76
2023/06/22 04:20:20;;;;;;;0.30;0.30;;;15.00;99.90;;;;;;5090872;28;20061;-76
2023/06/22 04:22:46;;;;;;;0.40;0.40;;;15.10;99.90;;;;;;5090729;28;20044;-75
2023/06/22 04:25:11;;;;;;;;;;;15.20;99.90;;;;;;5091376;28;20401;-76
2023/06/22 04:27:40;;;;;;;0.20;0.20;;;15.20;99.90;;;;;;5090438;28;19924;-76
2023/06/22 04:30:07;;;;;;;0.20;0.20;;;15.30;99.90;;;;;;5090725;28;20040;-77
2023/06/22 04:32:35;;;;;;;0.20;0.20;;;15.40;99.90;;;;;;5090892;28;20093;-75
2023/06/22 04:35:06;;;;;;;0.20;0.20;;;15.40;99.90;;;;;;5089928;28;20067;-75
2023/06/22 04:37:32;;;;;;;0.20;0.20;;;15.50;99.90;;;;;;5090977;28;20040;-76
2023/06/22 04:39:58;;;;;;;;;;;15.50;99.90;;;;;;5090873;28;20055;-75
2023/06/22 04:42:25;;;;;;;0.20;0.20;;;15.60;99.90;;;;;;5091192;28;19920;-76
2023/06/22 04:44:51;;;;;;;0.20;0.20;;;15.70;99.90;;;;;;5090453;28;20040;-76
2023/06/22 04:47:17;;;;;;;;;;;15.80;99.90;;;;;;5057033;28;20388;-76
2023/06/22 04:49:43;;;;;;;0.20;0.20;;;16.00;99.90;;;;;;5090045;28;19924;-77
2023/06/22 04:52:12;;;;;;;0.20;0.20;;;16.10;99.90;;;;;;5090568;28;20036;-76
2023/06/22 04:54:39;;;;;;;0.10;0.10;;;16.30;99.90;;;;;;5090644;28;20035;-76
2023/06/22 04:57:10;;;;;;;0.20;0.20;;;16.30;99.90;;;;;;5073463;28;20067;-76
2023/06/22 04:59:38;;;;;;;0.20;0.20;;;16.40;99.90;;;;;;5090447;28;20069;-78
2023/06/22 05:02:05;;;;;;;0.30;0.30;;;16.60;99.90;;;;;;5089817;28;20097;-77
2023/06/22 05:04:32;;;;;;;0.17;0.17;;;16.60;99.90;;;;;;5091371;28;20044;-78
2023/06/22 05:07:02;;;;;;;0.20;0.20;;;16.60;99.90;;;;;;5089295;28;20054;-78
2023/06/22 05:09:29;;;;;;;0.52;0.52;;;16.70;99.90;;;;;;5090082;28;20036;-76
2023/06/22 05:11:56;;;;;;;0.22;0.22;;;16.90;99.90;;;;;;5072913;28;20080;-77
2023/06/22 05:14:22;;;;;;;0.35;0.35;;;16.90;99.90;;;;;;5090043;28;20105;-76
2023/06/22 05:16:49;;;;;;;0.55;0.55;;;17.00;99.90;;;;;;5072286;28;20051;-76
2023/06/22 05:19:14;;;;;;;0.88;0.88;;;17.10;99.90;;;;;;5089414;28;20086;-78
2023/06/22 05:21:40;;;;;;;;;;;17.20;99.90;;;;;;5091279;28;20052;-78
2023/06/22 05:24:06;;;;;;;0.20;0.20;;;17.30;99.90;;;;;;5089428;28;19927;-77
2023/06/22 05:26:32;;;;;;;;;;;17.30;99.90;;;;;;5089712;28;20066;-78
2023/06/22 05:29:01;;;;;;;0.10;0.10;;;17.40;99.90;;;;;;5089116;28;19966;-78
2023/06/22 05:31:27;;;;;;;0.40;0.40;;;17.50;99.90;;;;;;5089514;28;20047;-76
2023/06/22 05:33:53;;;;;;;;;;;17.50;99.90;;;;;;5072505;28;20048;-78
2023/06/22 05:36:25;;;;;;;0.50;0.50;;;17.70;99.90;;;;;;5089168;28;19915;-79
2023/06/22 05:38:51;;;;;;;0.52;0.52;;;17.80;99.90;;;;;;5056240;28;20177;-77
2023/06/22 05:41:17;;;;;;;0.10;0.10;;;17.90;99.90;;;;;;5072470;28;20508;-79
2023/06/22 05:43:43;;;;;;;;;;;18.00;99.90;;;;;;5072986;28;20048;-78
2023/06/22 05:46:09;;;;;;;0.40;0.40;;;18.10;99.90;;;;;;5090054;28;19920;-77
2023/06/22 05:48:34;;;;;;;;;;;18.20;99.90;;;;;;5089435;28;20040;-77
2023/06/22 05:51:00;;;;;;;0.50;0.50;;;18.30;99.90;;;;;;5088374;28;19920;-76
2023/06/22 05:53:26;;;;;;;;;;;18.30;99.90;;;;;;5073035;28;20044;-80
2023/06/22 05:55:51;;;;;;;0.20;0.20;;;18.40;99.90;;;;;;5072112;28;19924;-76
2023/06/22 05:58:17;;;;;;;;;;;18.50;99.90;;;;;;5089641;28;20044;-78
2023/06/22 06:00:43;;;;;;;0.43;0.43;;;18.60;99.90;;;;;;5089036;28;19967;-77
2023/06/22 06:03:08;;;;;;;;;;;18.70;99.90;;;;;;5072853;28;20048;-77
2023/06/22 06:05:35;;;;;;;0.40;0.40;;;18.80;99.90;;;;;;5072379;28;19920;-76
2023/06/22 06:08:02;;;;;;;0.15;0.15;;;18.90;99.90;;;;;;5089637;28;20432;-76
2023/06/22 06:10:29;;;;;;;0.13;0.13;;;19.00;99.90;;;;;;5089233;28;20097;-77
2023/06/22 06:12:56;;;;;;;0.80;0.63;;;19.00;99.90;;;;;;5089141;28;20036;-76
2023/06/22 06:15:21;;;;;;;0.30;0.30;;;19.10;99.90;;;;;;5089807;28;20052;-78
2023/06/22 06:17:52;;;;;;;0.25;0.25;;;19.20;99.90;;;;;;5088962;28;20044;-78
2023/06/22 06:20:23;;;;;;;0.20;0.20;;;19.20;99.90;;;;;;5093222;28;20028;-78
2023/06/22 06:22:49;;;;;;;0.15;0.15;;;19.30;99.90;;;;;;5127535;27;20345;-77
2023/06/22 06:25:16;;;;;;;1.48;1.38;;;19.40;99.90;;;;;;5127322;27;20048;-76
2023/06/22 06:27:49;;;;;;;0.77;0.77;;;19.50;99.90;;;;;;5093256;28;20131;-78
2023/06/22 06:30:16;;;;;;;0.40;0.40;;;19.70;99.90;;;;;;5127119;27;20485;-76
2023/06/22 06:32:42;;;;;;;0.40;0.40;;;19.90;99.90;;;;;;5093353;28;20048;-78
2023/06/22 06:35:09;;;;;;;0.38;0.38;;;20.10;99.90;;;;;;5092967;28;20052;-79
2023/06/22 06:37:40;;;;;;;2.10;0.30;;;20.30;99.90;;;;;;5092973;28;20085;-78
2023/06/22 06:40:12;;;;;;;0.40;0.40;;;20.40;99.90;;;;;;5092906;28;20044;-76
2023/06/22 06:42:45;;;;;;;3.10;0.90;;;20.50;99.90;;;;;;5093148;28;20466;-77
2023/06/22 06:45:19;;;;;;;0.15;0.15;;;20.60;99.90;;;;;;5126985;27;20098;-76
2023/06/22 06:47:45;;;;;;;1.15;1.13;;;20.70;99.90;;;;;;5092908;28;20097;-77
2023/06/22 06:50:12;;;;;;;0.50;0.50;;;20.80;99.90;;;;;;5127129;27;20047;-76
2023/06/22 06:52:38;;;;;;;0.60;0.60;;;21.00;99.90;;;;;;5093026;28;20485;-76
2023/06/22 06:55:07;;;;;;;0.40;0.38;;;21.20;99.90;;;;;;5092463;28;20093;-76
2023/06/22 06:57:33;;;;;;;1.25;1.20;;;21.20;99.90;;;;;;5127134;27;20540;-75
2023/06/22 06:59:59;;;;;;;0.35;0.35;;;21.20;99.90;;;;;;5108757;28;20040;-76
2023/06/22 07:02:27;;;;;;;0.32;0.32;;;21.30;99.90;;;;;;5109753;28;20051;-78
2023/06/22 07:04:55;;;;;;;0.75;0.75;;;21.40;99.90;;;;;;5091758;28;20130;-75
2023/06/22 07:07:21;;;;;;;0.98;0.55;;;21.60;99.90;;;;;;5092417;28;20147;-78
2023/06/22 07:09:47;;;;;;;0.80;0.73;;;21.60;99.90;;;;;;5075453;28;20495;-76
2023/06/22 07:12:12;;;;;;;0.40;0.40;;;21.70;99.90;;;;;;5092343;28;20040;-77
2023/06/22 07:14:38;;;;;;;0.30;0.30;;;21.80;99.90;;;;;;5092183;28;20461;-77
2023/06/22 07:17:04;;;;;;;0.43;0.40;;;21.90;99.90;;;;;;5058584;28;20028;-78
2023/06/22 07:19:31;;;;;;;0.20;0.20;;;22.00;99.90;;;;;;5092377;28;20039;-80
2023/06/22 07:21:57;;;;;;;0.28;0.28;;;22.00;99.90;;;;;;5091659;28;20076;-76
2023/06/22 07:24:24;;;;;;;0.40;0.40;;;22.10;99.90;;;;;;5091845;28;20448;-79
2023/06/22 07:26:51;;;;;;;0.45;0.45;;;22.30;99.90;;;;;;5091913;28;20055;-77
2023/06/22 07:29:17;;;;;;;0.40;0.40;;;22.40;99.90;;;;;;5074895;28;20142;-74
2023/06/22 07:31:43;;;;;;;0.65;0.65;;;22.40;99.90;;;;;;5091860;28;20086;-75
2023/06/22 07:34:09;;;;;;;0.20;0.20;;;22.40;99.90;;;;;;5091268;28;20079;-77
2023/06/22 07:36:35;;;;;;;0.30;0.30;;;22.50;99.90;;;;;;5091817;28;20044;-78
2023/06/22 07:39:03;;;;;;;0.20;0.20;;;22.60;99.90;;;;;;5075061;28;20058;-76
2023/06/22 07:41:28;;;;;;;0.22;0.22;;;22.70;99.90;;;;;;5075272;28;20163;-79
2023/06/22 07:43:54;;;;;;;0.20;0.20;;;22.70;99.90;;;;;;5091524;28;20490;-75
2023/06/22 07:46:20;;;;;;;2.33;0.40;;;22.80;99.90;;;;;;5091825;28;20374;-76
2023/06/22 07:48:45;;;;;;;0.45;0.45;;;22.60;99.90;;;;;;5091897;28;20035;-76
2023/06/22 07:51:14;;;;;;;0.65;0.65;;;22.60;99.90;;;;;;5091638;28;20047;-78
2023/06/22 07:53:42;;;;;;;0.77;0.77;;;22.60;99.90;;;;;;5091678;28;20044;-77
2023/06/22 07:56:10;;;;;;;2.42;1.13;;;22.70;99.90;;;;;;5091297;28;20553;-77
2023/06/22 07:58:36;;;;;;;3.50;0.90;;;22.70;99.90;;;;;;5091853;28;20197;-77
2023/06/22 08:01:02;;;;;;;0.30;0.30;;;22.70;99.90;;;;;;5091812;28;20079;-77
2023/06/22 08:03:28;;;;;;;0.20;0.20;;;22.70;99.90;;;;;;5091860;28;20047;-76
2023/06/22 08:05:54;;;;;;;0.30;0.30;;;22.70;99.90;;;;;;5091332;28;20384;-77
2023/06/22 08:08:19;;;;;;;0.30;0.30;;;22.80;99.90;;;;;;5093305;28;20116;-77
2023/06/22 08:10:45;;;;;;;1.65;1.55;;;22.90;99.90;;;;;;5091021;28;20044;-76
2023/06/22 08:13:11;;;;;;;0.30;0.30;;;23.10;99.90;;;;;;5073689;28;20047;-75
2023/06/22 08:15:36;;;;;;;0.30;0.30;;;23.20;99.90;;;;;;5073932;28;20121;-77
2023/06/22 08:18:02;;;;;;;1.00;1.00;;;23.40;99.90;;;;;;5091107;28;20048;-77
2023/06/22 08:20:28;;;;;;;0.30;0.30;;;23.60;99.90;;;;;;5124972;27;20114;-77
2023/06/22 08:22:55;;;;;;;0.30;0.30;;;23.60;99.90;;;;;;5091391;28;20068;-78
2023/06/22 08:25:21;;;;;;;0.40;0.40;;;23.70;99.90;;;;;;5124895;27;20055;-78
2023/06/22 08:27:50;;;;;;;0.10;0.10;;;23.70;99.90;;;;;;5090948;28;20046;-75
2023/06/22 08:30:18;;;;;;;0.25;0.17;;;23.70;99.90;;;;;;5074027;28;20100;-76
2023/06/22 08:32:44;;;;;;;0.30;0.30;;;23.80;99.90;;;;;;5125328;27;20043;-75
2023/06/22 08:35:09;;;;;;;0.17;0.17;;;23.80;99.90;;;;;;5090573;28;20051;-75
2023/06/22 08:37:36;;;;;;;0.25;0.25;;;23.70;99.90;;;;;;5091042;28;20485;-75
2023/06/22 08:40:08;;;;;;;1.48;0.77;;;23.70;99.90;;;;;;5090629;28;20036;-77
2023/06/22 08:42:34;;;;;;;0.20;0.20;;;23.80;99.90;;;;;;5090318;28;20098;-80
2023/06/22 08:45:00;;;;;;;1.63;1.08;;;24.00;99.90;;;;;;5073203;28;20489;-77
2023/06/22 08:47:27;;;;;;;0.70;0.70;;;24.10;99.90;;;;;;5125141;27;20048;-77
2023/06/22 08:49:53;;;;;;;0.30;0.30;;;24.20;99.90;;;;;;5090342;28;20396;-79
2023/06/22 08:52:19;;;;;;;1.10;0.95;;;24.30;99.90;;;;;;5090220;28;20078;-78
2023/06/22 08:54:48;;;;;;;1.45;0.60;;;24.30;99.90;;;;;;5073815;28;20044;-77
2023/06/22 08:57:14;;;;;;;0.30;0.30;;;24.30;99.90;;;;;;5090559;28;20508;-75
2023/06/22 08:59:40;;;;;;;0.43;0.40;;;24.30;99.90;;;;;;5074586;28;20603;-77
2023/06/22 09:02:06;;;;;;;0.47;0.47;;;24.20;99.90;;;;;;5074411;28;20044;-78
2023/06/22 09:04:34;;;;;;;0.65;0.55;;;24.20;99.90;;;;;;5092135;28;20073;-76
2023/06/22 09:07:01;;;;;;;0.70;0.70;;;24.30;99.90;;;;;;5074301;28;20120;-76
2023/06/22 09:09:26;;;;;;;1.33;1.23;;;24.30;99.90;;;;;;5074062;28;20428;-81
2023/06/22 09:11:52;;;;;;;0.63;0.63;;;24.20;99.90;;;;;;5090484;28;20044;-78
2023/06/22 09:14:18;;;;;;;0.20;0.20;;;24.30;99.90;;;;;;5073502;28;20039;-77
2023/06/22 09:16:44;;;;;;;1.05;1.05;;;24.40;99.90;;;;;;5090793;28;20536;-78
2023/06/22 09:19:10;;;;;;;0.20;0.20;;;24.50;99.90;;;;;;5090317;28;20166;-77
2023/06/22 09:21:36;;;;;;;0.20;0.20;;;24.60;99.90;;;;;;5073640;28;20055;-77
2023/06/22 09:24:02;;;;;;;0.15;0.15;;;24.70;99.90;;;;;;5089920;28;20052;-78
2023/06/22 09:26:28;;;;;;;0.30;0.30;;;24.80;99.90;;;;;;5073675;28;20566;-77
2023/06/22 09:28:53;;;;;;;0.32;0.32;;;24.80;99.90;;;;;;5090101;28;20075;-78
2023/06/22 09:31:25;;;;;;;0.50;0.50;;;24.70;99.90;;;;;;5073366;28;20101;-78
2023/06/22 09:33:54;;;;;;;0.20;0.20;;;24.90;99.90;;;;;;5090406;28;20060;-79
2023/06/22 09:36:21;;;;;;;0.20;0.20;;;24.90;99.90;;;;;;5089738;28;20549;-77
2023/06/22 09:38:49;;;;;;;1.05;1.05;;;25.00;99.90;;;;;;5089628;28;20417;-77
2023/06/22 09:41:15;;;;;;;0.13;0.13;;;25.20;99.90;;;;;;5089846;28;20047;-76
2023/06/22 09:43:41;;;;;;;0.30;0.30;;;25.30;99.90;;;;;;5092291;28;20623;-77
2023/06/22 09:46:07;;;;;;;0.77;0.47;;;25.30;99.90;;;;;;5090228;28;20051;-77
2023/06/22 09:48:32;;;;;;;0.20;0.20;;;25.20;99.90;;;;;;5090518;28;20044;-79
2023/06/22 09:50:58;;;;;;;0.68;0.68;;;25.20;99.90;;;;;;5073062;28;20054;-77
2023/06/22 09:53:24;;;;;;;0.65;0.65;;;25.30;99.90;;;;;;5089948;28;20054;-77
2023/06/22 09:55:50;;;;;;;0.30;0.30;;;25.40;99.90;;;;;;5089828;28;20048;-78
2023/06/22 09:58:15;;;;;;;0.80;0.60;;;25.50;99.90;;;;;;5089268;28;20563;-78
2023/06/22 10:00:41;;;;;;;0.20;0.20;;;25.70;99.90;;;;;;5090010;28;20050;-80
2023/06/22 10:03:07;;;;;;;0.65;0.63;;;25.80;99.90;;;;;;5072633;28;20050;-76
2023/06/22 10:05:33;;;;;;;0.20;0.20;;;25.80;99.90;;;;;;5073007;28;20044;-80
2023/06/22 10:07:58;;;;;;;0.63;0.63;;;25.60;99.90;;;;;;5090398;28;20036;-79
2023/06/22 10:10:24;;;;;;;0.73;0.65;;;25.50;99.90;;;;;;5090145;28;20409;-78
2023/06/22 10:13:02;;;;;;;0.20;0.20;;;25.40;99.90;;;;;;5090138;28;20040;-79
2023/06/22 10:15:28;;;;;;;0.17;0.17;;;25.30;99.90;;;;;;5090131;28;20043;-79
2023/06/22 10:17:53;;;;;;;0.40;0.40;;;25.30;99.90;;;;;;5089713;28;20097;-79
2023/06/22 10:20:20;;;;;;;0.28;0.28;;;25.30;99.90;;;;;;5072562;28;20048;-79
2023/06/22 10:22:46;;;;;;;0.13;0.13;;;25.40;99.90;;;;;;5090028;28;20039;-80
2023/06/22 10:25:13;;;;;;;0.45;0.45;;;25.40;99.90;;;;;;5089074;28;20489;-79
2023/06/22 10:27:41;;;;;;;0.68;0.68;;;25.50;99.90;;;;;;5089597;28;20521;-78
2023/06/22 10:30:09;;;;;;;0.52;0.38;;;25.50;99.90;;;;;;5073233;28;20044;-80
2023/06/22 10:32:34;;;;;;;0.20;0.20;;;25.40;99.90;;;;;;5072617;28;20048;-80
2023/06/22 10:35:00;;;;;;;0.60;0.60;;;25.30;99.90;;;;;;5089256;28;20490;-81
2023/06/22 10:37:26;;;;;;;0.15;0.15;;;25.40;99.90;;;;;;5089019;28;20051;-79
2023/06/22 10:39:51;;;;;;;0.10;0.10;;;25.40;99.90;;;;;;5089650;28;20040;-78
2023/06/22 10:42:17;;;;;;;0.20;0.20;;;25.40;99.90;;;;;;5089592;28;20596;-81
2023/06/22 10:44:44;;;;;;;0.95;0.28;;;25.40;99.90;;;;;;5090522;28;20044;-79
2023/06/22 10:47:11;;;;;;;0.20;0.20;;;25.50;99.90;;;;;;5088972;28;20103;-79
2023/06/22 10:49:38;;;;;;;0.55;0.55;;;25.70;99.90;;;;;;5102042;28;20474;-79
2023/06/22 10:52:06;;;;;;;0.68;0.68;;;25.80;99.90;;;;;;5102890;28;20442;-75
2023/06/22 10:54:33;;;;;;;0.28;0.28;;;26.00;99.90;;;;;;5068303;28;20490;-79
2023/06/22 10:56:59;;;;;;;1.27;1.27;;;26.10;99.90;;;;;;5085889;28;20054;-78
2023/06/22 10:59:25;;;;;;;0.20;0.20;;;26.10;99.90;;;;;;5085511;28;20135;-79
2023/06/22 11:01:52;;;;;;;0.35;0.35;;;26.20;99.90;;;;;;5086463;28;20063;-78
2023/06/22 11:04:18;;;;;;;0.10;0.10;;;26.40;99.90;;;;;;5087756;28;20048;-77
2023/06/22 11:06:44;;;;;;;0.25;0.25;;;26.70;99.90;;;;;;5092380;28;20101;-77
2023/06/22 11:09:09;;;;;;;3.60;0.63;;;26.90;99.90;;;;;;5091728;28;20035;-77
2023/06/22 11:11:35;;;;;;;1.35;0.82;;;26.80;99.90;;;;;;5092566;28;20048;-80
2023/06/22 11:14:01;;;;;;;1.02;0.22;;;26.60;99.90;;;;;;5075947;28;20082;-77
2023/06/22 11:16:27;;;;;;;0.15;0.15;;;26.60;99.90;;;;;;5059037;28;20097;-78
2023/06/22 11:18:52;;;;;;;0.45;0.45;;;26.80;99.90;;;;;;5075525;28;20040;-78
2023/06/22 11:21:18;;;;;;;0.25;0.17;;;26.90;99.90;;;;;;5093258;28;20101;-79
2023/06/22 11:23:44;;;;;;;0.28;0.28;;;26.90;99.90;;;;;;5092803;28;20052;-76
2023/06/22 11:26:10;;;;;;;0.50;0.50;;;27.00;99.90;;;;;;5091865;28;20481;-78
2023/06/22 11:28:36;;;;;;;2.08;0.77;;;27.20;99.90;;;;;;5075335;28;20051;-79
2023/06/22 11:31:01;;;;;;;0.70;0.70;;;27.30;99.90;;;;;;5092505;28;20040;-78
2023/06/22 11:33:27;;;;;;;0.40;0.40;;;27.20;99.90;;;;;;5074917;28;20420;-78
2023/06/22 11:35:56;;;;;;;1.15;0.73;;;26.90;99.90;;;;;;5076204;28;20122;-77
2023/06/22 11:38:21;;;;;;;0.20;0.20;;;26.80;99.90;;;;;;5091823;28;20126;-80
2023/06/22 11:40:47;;;;;;;0.10;0.10;;;26.60;99.90;;;;;;5092183;28;20048;-78
2023/06/22 11:43:14;;;;;;;0.50;0.50;;;26.80;99.90;;;;;;5091974;28;20076;-76
2023/06/22 11:45:40;;;;;;;0.65;0.60;;;26.90;99.90;;;;;;5075239;28;20051;-79
2023/06/22 11:48:06;;;;;;;0.10;0.10;;;26.90;99.90;;;;;;5091762;28;20052;-76
2023/06/22 11:50:35;;;;;;;0.50;0.50;;;26.90;99.90;;;;;;5091229;28;20048;-78
2023/06/22 11:53:02;;;;;;;0.10;0.10;;;27.00;99.90;;;;;;5091849;28;20551;-78
2023/06/22 11:55:28;;;;;;;4.03;1.60;;;27.10;99.90;;;;;;5075043;28;20036;-79
2023/06/22 11:58:00;;;;;;;0.30;0.30;;;27.10;99.90;;;;;;5091641;28;20491;-78
2023/06/22 12:00:26;;;;;;;0.82;0.80;;;27.10;99.90;;;;;;5091487;28;20572;-77
2023/06/22 12:02:52;;;;;;;0.10;0.10;;;27.10;99.90;;;;;;5091679;28;20040;-78
2023/06/22 12:05:22;;;;;;;0.22;0.22;;;27.20;99.90;;;;;;5091609;28;20110;-76
2023/06/22 12:07:48;;;;;;;0.10;0.10;;;27.30;99.90;;;;;;5091920;28;20043;-77
2023/06/22 12:10:14;;;;;;;0.30;0.30;;;27.30;99.40;;;;;;5091016;28;20498;-77
2023/06/22 12:12:39;;;;;;;0.30;0.30;;;27.20;99.90;;;;;;5091448;28;20036;-76
2023/06/22 12:15:06;;;;;;;0.20;0.20;;;27.10;99.90;;;;;;5091670;28;20068;-78
2023/06/22 12:17:31;;;;;;;0.32;0.32;;;27.00;99.90;;;;;;5090097;28;20075;-77
2023/06/22 12:19:58;;;;;;;0.25;0.25;;;27.10;99.90;;;;;;5091920;28;20075;-80
2023/06/22 12:22:24;;;;;;;0.35;0.35;;;26.90;99.90;;;;;;5090972;28;20586;-79
2023/06/22 12:24:49;;;;;;;0.28;0.22;;;26.60;99.80;;;;;;5090950;28;20040;-76
2023/06/22 12:27:17;;;;;;;0.63;0.55;;;26.50;99.90;;;;;;5090360;28;20043;-76
2023/06/22 12:29:45;;;;;;;0.20;0.20;;;26.50;99.90;;;;;;5074298;28;20051;-75
2023/06/22 12:32:13;;;;;;;0.28;0.28;;;26.60;99.90;;;;;;5091173;28;20044;-76
2023/06/22 12:34:40;;;;;;;0.38;0.38;;;26.50;99.90;;;;;;5074386;28;20052;-80
2023/06/22 12:37:06;;;;;;;0.60;0.50;;;26.50;99.90;;;;;;5090714;28;20098;-77
2023/06/22 12:39:32;;;;;;;1.10;0.75;;;26.60;99.90;;;;;;5073730;28;20051;-78
2023/06/22 12:41:58;;;;;;;0.75;0.52;;;26.70;99.90;;;;;;5091085;28;20047;-76
2023/06/22 12:44:24;;;;;;;0.77;0.57;;;26.70;99.90;;;;;;5090539;28;20054;-77
2023/06/22 12:46:49;;;;;;;0.35;0.35;;;26.50;99.90;;;;;;5090687;28;20393;-75
2023/06/22 12:49:15;;;;;;;0.47;0.47;;;26.30;99.90;;;;;;5089965;28;20568;-76
2023/06/22 12:51:42;;;;;;;0.17;0.17;;;26.30;99.90;;;;;;5090245;28;20257;-76
2023/06/22 12:54:08;;;;;;;0.20;0.20;;;26.20;99.50;;;;;;5090681;28;20123;-75